WetterOnline ( http://www.wetteronline.de )

Wetter aktuell Denkendorf

Aktuelles Wetter: Gelbelsee (539m)

6-stündlich | Neueste Meldungen
Ortszeit Temperatur Wetter
So, 22.04. 14:00 24.1° C fast wolkenlos
So, 22.04. 8:00 14.9° C wolkenlos
So, 22.04. 2:00 15.7° C wolkenlos
Sa, 21.04. 20:00 22.2° C wolkenlos
Sa, 21.04. 14:00 24.3° C wolkenlos
Sa, 21.04. 8:00 16.4° C wolkenlos
Sa, 21.04. 2:00 15.0° C wolkenlos
Fr, 20.04. 20:00 22.7° C wolkenlos
Ortszeit Temperatur Wetter
So, 22.04. 14:00 24.1° C fast wolkenlos
So, 22.04. 13:50 24.1° C fast wolkenlos
So, 22.04. 13:40 24.0° C fast wolkenlos
So, 22.04. 13:30 23.8° C fast wolkenlos
So, 22.04. 13:20 23.8° C fast wolkenlos
So, 22.04. 13:10 24.1° C fast wolkenlos
So, 22.04. 13:00 23.8° C wolkenlos
So, 22.04. 12:30 23.1° C wolkenlos
So, 22.04. 12:00 23.0° C wolkenlos
So, 22.04. 11:30 21.8° C wolkenlos
So, 22.04. 11:00 21.3° C wolkenlos
Ortszeit Relative Feuchte Sichtweite
So, 22.04. 14:00 37% 28 km
So, 22.04. 8:00 74% 11 km
So, 22.04. 2:00 68% 20 km
Sa, 21.04. 20:00 37% 60 km
Sa, 21.04. 14:00 34% 20 km
Sa, 21.04. 8:00 55% 55 km
Sa, 21.04. 2:00 45% 60 km
Fr, 20.04. 20:00 28% 50 km
Ortszeit Relative Feuchte Sichtweite
So, 22.04. 14:00 37% 28 km
So, 22.04. 13:50 37% -
So, 22.04. 13:40 37% -
So, 22.04. 13:30 40% 27 km
So, 22.04. 13:20 40% -
So, 22.04. 13:10 39% -
So, 22.04. 13:00 39% 30 km
So, 22.04. 12:30 40% 25 km
So, 22.04. 12:00 46% 22 km
So, 22.04. 11:30 49% 27 km
So, 22.04. 11:00 51% 24 km
Ortszeit Niederschlagsmenge Niederschlagsart
So, 22.04. 14:00 0.0 l/m2 in 6 Std. -
So, 22.04. 8:00 0.0 l/m2 in 12 Std. -
So, 22.04. 2:00 0.0 l/m2 in 6 Std. -
Sa, 21.04. 20:00 0.0 l/m2 in 12 Std. -
Sa, 21.04. 14:00 0.0 l/m2 in 6 Std. -
Sa, 21.04. 8:00 0.0 l/m2 in 12 Std. -
Sa, 21.04. 2:00 0.0 l/m2 in 6 Std. -
Fr, 20.04. 20:00 0.0 l/m2 in 12 Std. -
Ortszeit Niederschlagsmenge Niederschlagsart
So, 22.04. 14:00 0.0 l/m2 in 1 Std. -
So, 22.04. 13:50 keine Meldung -
So, 22.04. 13:40 keine Meldung -
So, 22.04. 13:30 0.0 l/m2 in 1 Std. -
So, 22.04. 13:20 keine Meldung -
So, 22.04. 13:10 keine Meldung -
So, 22.04. 13:00 0.0 l/m2 in 1 Std. -
So, 22.04. 12:30 0.0 l/m2 in 1 Std. -
So, 22.04. 12:00 0.0 l/m2 in 1 Std. -
So, 22.04. 11:30 0.0 l/m2 in 1 Std. -
So, 22.04. 11:00 0.0 l/m2 in 1 Std. -
Ortszeit Stärke Spitze Richtung
km/h Bft. km/h Grad Sektor
So, 22.04. 14:00 11 2 24 210° SW
So, 22.04. 8:00 4 1 18 100° O
So, 22.04. 2:00 7 2 14 30° NO
Sa, 21.04. 20:00 7 2 29 320° NW
Sa, 21.04. 14:00 19 3 35 250° W
Sa, 21.04. 8:00 4 1 11 220° SW
Sa, 21.04. 2:00 2 1 11 20° N
Fr, 20.04. 20:00 7 2 32 130° SO
Ortszeit Stärke Spitze Richtung
km/h Bft. km/h Grad Sektor
So, 22.04. 14:00 11 2 24 210° SW
So, 22.04. 13:50 11 2 - 210° SW
So, 22.04. 13:40 13 3 - 220° SW
So, 22.04. 13:30 11 2 18 180° S
So, 22.04. 13:20 11 2 - 180° S
So, 22.04. 13:10 11 2 - 220° SW
So, 22.04. 13:00 7 2 18 140° SO
So, 22.04. 12:30 7 2 18 160° S
So, 22.04. 12:00 9 2 15 170° S
So, 22.04. 11:30 7 2 11 220° SW
So, 22.04. 11:00 7 2 14 220° SW
Ortszeit Untergrenze Bedeckung Gattung
total tief tief mittel hoch
So, 22.04. 14:00 8700 m 1/8 0/8 - - -
So, 22.04. 8:00 - 0/8 0/8 - - -
So, 22.04. 2:00 - 0/8 0/8 - - -
Sa, 21.04. 20:00 - 0/8 0/8 - - -
Sa, 21.04. 14:00 - 0/8 0/8 - - -
Sa, 21.04. 8:00 - 0/8 0/8 - - -
Sa, 21.04. 2:00 - 0/8 0/8 - - -
Fr, 20.04. 20:00 - 0/8 0/8 - - -
Ortszeit Bedeckungsgrad in Achtel und Wolkenuntergrenze
So, 22.04. 14:00 1(8700m)
So, 22.04. 13:50 1(8700m)
So, 22.04. 13:40 1(8700m)
So, 22.04. 13:30 1(7800m)
So, 22.04. 13:20 1(7800m) 2(8400m)
So, 22.04. 13:10 1(7800m)
So, 22.04. 13:00 2(7800m)
So, 22.04. 12:30 1(5100m)
So, 22.04. 12:00 keine Wolken
So, 22.04. 11:30 1(8700m)
So, 22.04. 11:00 1(7800m)
Ortszeit Luftdruck NN (hPa) Tendenz (hPa in 3 Std.)
So, 22.04. 14:00 1014 - 1,1
So, 22.04. 8:00 1017 - 0,1
So, 22.04. 2:00 1018 - 0,2
Sa, 21.04. 20:00 1016 - 0,4
Sa, 21.04. 14:00 1017 - 0,9
Sa, 21.04. 8:00 1020 + 0,3
Sa, 21.04. 2:00 1021 - 0,7
Fr, 20.04. 20:00 1020 - 0,9
Ortszeit Luftdruck NN (hPa) Tendenz (hPa in 3 Std.)
So, 22.04. 14:00 1014 - 1,1
So, 22.04. 13:50 1014 keine Meldung
So, 22.04. 13:40 1014 keine Meldung
So, 22.04. 13:30 1014 - 1,0
So, 22.04. 13:20 1014 keine Meldung
So, 22.04. 13:10 1014 keine Meldung
So, 22.04. 13:00 1014 - 0,8
So, 22.04. 12:30 1015 - 0,5
So, 22.04. 12:00 1015 - 0,3
So, 22.04. 11:30 1015 - 0,3
So, 22.04. 11:00 1015 - 0,1
Ortszeit Schneehöhe (cm)
So, 22.04. 14:00 0
So, 22.04. 8:00 -
So, 22.04. 2:00 -
Sa, 21.04. 20:00 -
Sa, 21.04. 14:00 0
Sa, 21.04. 8:00 0
Sa, 21.04. 2:00 0
Fr, 20.04. 20:00 0
Ortszeit Schneehöhe (cm)
So, 22.04. 14:00 0
So, 22.04. 13:50 0
So, 22.04. 13:40 0
So, 22.04. 13:30 0
So, 22.04. 13:20 0
So, 22.04. 13:10 0
So, 22.04. 13:00 0
So, 22.04. 12:30 0
So, 22.04. 12:00 0
So, 22.04. 11:30 0
So, 22.04. 11:00 0
Link zu dieser Seite / Seite empfehlen

Das Wetter in ...